createdAt,value
2022-07-31T00:01:12.531Z,100460.19
2022-07-31T00:03:45.260Z,100461.13
2022-07-31T00:06:18.793Z,100461.09
2022-07-31T00:08:51.706Z,100459.34
2022-07-31T00:11:23.475Z,100461.48
2022-07-31T00:13:57.490Z,100461.49
2022-07-31T00:16:30.461Z,100457.52
2022-07-31T00:19:02.225Z,100456.89
2022-07-31T00:21:34.014Z,100456.39
2022-07-31T00:28:31.668Z,100458.85
2022-07-31T00:31:03.522Z,100457.74
2022-07-31T00:33:35.205Z,100456.39
2022-07-31T00:36:08.276Z,100455.20
2022-07-31T00:38:40.081Z,100452.43
2022-07-31T00:41:12.174Z,100454.56
2022-07-31T00:43:43.797Z,100451.36
2022-07-31T00:46:15.704Z,100453.76
2022-07-31T00:48:49.483Z,100453.19
2022-07-31T00:51:21.511Z,100450.73
2022-07-31T00:53:53.152Z,100452.77
2022-07-31T00:56:25.205Z,100452.88
2022-07-31T00:58:57.013Z,100454.53
2022-07-31T01:01:28.998Z,100455.48
2022-07-31T01:04:01.071Z,100454.45
2022-07-31T01:06:33.234Z,100448.82
2022-07-31T01:09:07.456Z,100446.11
2022-07-31T01:11:48.594Z,100439.50
2022-07-31T01:14:25.697Z,100440.63
2022-07-31T01:17:00.238Z,100441.76
2022-07-31T01:19:37.987Z,100442.50
2022-07-31T01:22:34.718Z,100441.52
2022-07-31T01:25:18.258Z,100439.11
2022-07-31T01:28:06.652Z,100437.05
2022-07-31T01:30:44.558Z,100434.40
2022-07-31T01:33:21.300Z,100433.23
2022-07-31T01:35:59.920Z,100430.13
2022-07-31T01:38:36.556Z,100431.27
2022-07-31T01:41:13.762Z,100433.88
2022-07-31T01:43:49.019Z,100429.08
2022-07-31T01:46:24.310Z,100429.92
2022-07-31T01:48:58.582Z,100433.21
2022-07-31T01:51:33.613Z,100428.00
2022-07-31T01:54:07.878Z,100420.53
2022-07-31T01:56:39.056Z,100424.38
2022-07-31T01:59:22.655Z,100418.69
2022-07-31T02:02:19.358Z,100414.47
2022-07-31T02:04:51.725Z,100409.83
2022-07-31T02:07:25.388Z,100405.88
2022-07-31T02:10:00.635Z,100402.91
2022-07-31T02:12:38.085Z,100399.44
2022-07-31T02:15:13.380Z,100395.77
2022-07-31T02:17:49.745Z,100395.58
2022-07-31T02:20:29.003Z,100391.17
2022-07-31T02:23:01.982Z,100387.73
2022-07-31T02:25:36.801Z,100384.91
2022-07-31T02:28:13.120Z,100380.52
2022-07-31T02:30:46.253Z,100381.42
2022-07-31T02:33:22.141Z,100379.21
2022-07-31T02:35:56.686Z,100375.47
2022-07-31T02:38:30.159Z,100375.30
2022-07-31T02:41:05.777Z,100375.85
2022-07-31T02:43:38.202Z,100379.09
2022-07-31T02:46:24.252Z,100379.27
2022-07-31T02:48:57.027Z,100374.05
2022-07-31T02:51:27.336Z,100380.27
2022-07-31T02:53:59.514Z,100373.08
2022-07-31T02:56:34.086Z,100372.52
2022-07-31T02:59:07.201Z,100371.01
2022-07-31T03:01:52.658Z,100375.38
2022-07-31T03:04:24.520Z,100372.80
2022-07-31T03:06:56.376Z,100372.66
2022-07-31T03:09:28.338Z,100372.07
2022-07-31T03:12:14.433Z,100375.04
2022-07-31T03:14:47.111Z,100372.55
2022-07-31T03:17:19.994Z,100371.18
2022-07-31T03:19:53.125Z,100371.32
2022-07-31T03:22:24.909Z,100369.41
2022-07-31T03:24:57.724Z,100367.36
2022-07-31T03:27:28.305Z,100371.45
2022-07-31T03:30:00.028Z,100372.72
2022-07-31T03:32:31.723Z,100378.21
2022-07-31T03:35:04.007Z,100371.12
2022-07-31T03:37:35.810Z,100372.73
2022-07-31T03:40:09.378Z,100367.16
2022-07-31T03:42:42.265Z,100366.74
2022-07-31T03:45:13.307Z,100366.71
2022-07-31T03:47:45.241Z,100363.52
2022-07-31T03:50:18.395Z,100372.58
2022-07-31T03:52:50.697Z,100375.72
2022-07-31T03:55:21.336Z,100377.69
2022-07-31T03:57:55.030Z,100374.17
2022-07-31T04:00:28.237Z,100374.81
2022-07-31T04:03:08.164Z,100375.59
2022-07-31T04:05:57.469Z,100377.01
2022-07-31T04:08:29.730Z,100377.05
2022-07-31T04:11:01.474Z,100375.17
2022-07-31T04:13:35.809Z,100375.84
2022-07-31T04:16:08.928Z,100371.40
2022-07-31T04:18:39.087Z,100370.79
2022-07-31T04:21:10.769Z,100372.75
2022-07-31T04:23:42.390Z,100371.77
2022-07-31T04:26:25.995Z,100371.95
2022-07-31T04:29:07.746Z,100367.06
2022-07-31T04:31:41.096Z,100362.73
2022-07-31T04:34:15.541Z,100367.20
2022-07-31T04:36:47.183Z,100371.88
2022-07-31T04:39:18.859Z,100375.61
2022-07-31T04:41:51.942Z,100378.94
2022-07-31T04:44:24.777Z,100376.97
2022-07-31T04:47:02.555Z,100375.17
2022-07-31T04:49:37.032Z,100377.63
2022-07-31T04:52:09.829Z,100372.89
2022-07-31T04:54:40.588Z,100371.48
2022-07-31T04:57:17.329Z,100373.45
2022-07-31T04:59:59.434Z,100365.39
2022-07-31T05:02:34.302Z,100369.19
2022-07-31T05:05:07.379Z,100366.73
2022-07-31T05:07:43.072Z,100364.16
2022-07-31T05:10:33.119Z,100363.52
2022-07-31T05:13:04.964Z,100362.35
2022-07-31T05:15:38.310Z,100363.60
2022-07-31T05:18:12.929Z,100364.90
2022-07-31T05:20:44.661Z,100368.24
2022-07-31T05:23:52.400Z,100366.93
2022-07-31T05:26:36.248Z,100367.23
2022-07-31T05:29:08.337Z,100368.20
2022-07-31T05:31:40.029Z,100372.68
2022-07-31T05:34:32.837Z,100373.11
2022-07-31T05:37:04.873Z,100375.16
2022-07-31T05:39:38.144Z,100374.23
2022-07-31T05:42:28.485Z,100368.77
2022-07-31T05:45:19.198Z,100373.89
2022-07-31T05:47:54.729Z,100366.77
2022-07-31T05:50:27.237Z,100366.34
2022-07-31T05:52:59.061Z,100367.12
2022-07-31T05:55:51.367Z,100370.07
2022-07-31T05:58:37.666Z,100370.43
2022-07-31T06:01:09.388Z,100372.24
2022-07-31T06:03:51.873Z,100375.29
2022-07-31T06:06:31.448Z,100375.50
2022-07-31T06:09:05.210Z,100373.95
2022-07-31T06:11:40.648Z,100373.98
2022-07-31T06:14:12.412Z,100369.43
2022-07-31T06:17:11.248Z,100370.60
2022-07-31T06:19:44.459Z,100369.03
2022-07-31T06:22:16.813Z,100371.71
2022-07-31T06:24:48.407Z,100370.80
2022-07-31T06:27:33.236Z,100376.45
2022-07-31T06:30:07.282Z,100377.33
2022-07-31T06:32:39.356Z,100375.35
2022-07-31T06:35:11.896Z,100375.54
2022-07-31T06:38:00.849Z,100371.13
2022-07-31T06:40:32.161Z,100377.06
2022-07-31T06:43:36.204Z,100384.64
2022-07-31T06:46:48.811Z,100386.89
2022-07-31T06:49:49.343Z,100386.58
2022-07-31T06:52:21.488Z,100382.31
2022-07-31T06:54:53.300Z,100390.05
2022-07-31T06:57:25.136Z,100394.77
2022-07-31T06:59:56.970Z,100389.47
2022-07-31T07:02:28.754Z,100390.64
2022-07-31T07:05:06.618Z,100390.45
2022-07-31T07:07:39.803Z,100389.33
2022-07-31T07:10:13.338Z,100392.52
2022-07-31T07:13:08.406Z,100388.55
2022-07-31T07:15:41.231Z,100387.59
2022-07-31T07:18:13.074Z,100387.42
2022-07-31T07:20:52.582Z,100385.25
2022-07-31T07:23:23.636Z,100382.45
2022-07-31T07:26:00.043Z,100385.58
2022-07-31T07:28:32.400Z,100385.84
2022-07-31T07:31:07.214Z,100386.61
2022-07-31T07:33:40.031Z,100381.52
2022-07-31T07:36:22.320Z,100383.23
2022-07-31T07:38:56.432Z,100385.91
2022-07-31T07:41:28.708Z,100384.36
2022-07-31T07:44:00.567Z,100387.73
2022-07-31T07:46:33.324Z,100388.67
2022-07-31T07:49:05.258Z,100384.33
2022-07-31T07:51:59.070Z,100382.64
2022-07-31T07:54:52.344Z,100388.73
2022-07-31T07:57:26.585Z,100390.26
2022-07-31T08:00:14.953Z,100389.23
2022-07-31T08:03:47.617Z,100392.73
2022-07-31T08:05:45.117Z,100396.13
2022-07-31T08:08:16.833Z,100391.41
2022-07-31T08:11:08.768Z,100392.39
2022-07-31T08:13:51.045Z,100390.60
2022-07-31T08:16:25.992Z,100392.48
2022-07-31T08:19:01.482Z,100390.58
2022-07-31T08:21:34.920Z,100388.80
2022-07-31T08:24:07.545Z,100391.05
2022-07-31T08:26:58.344Z,100391.22
2022-07-31T08:29:30.694Z,100390.80
2022-07-31T08:32:17.631Z,100390.08
2022-07-31T08:35:19.521Z,100384.70
2022-07-31T08:38:01.881Z,100384.42
2022-07-31T08:40:43.422Z,100384.86
2022-07-31T08:46:09.286Z,100388.53
2022-07-31T08:48:44.917Z,100381.23
2022-07-31T08:51:18.689Z,100384.10
2022-07-31T08:54:26.159Z,100384.54
2022-07-31T08:56:58.292Z,100383.64
2022-07-31T08:59:29.962Z,100381.88
2022-07-31T09:02:02.391Z,100377.45
2022-07-31T09:04:35.300Z,100378.79
2022-07-31T09:07:11.758Z,100374.53
2022-07-31T09:09:51.482Z,100376.04
2022-07-31T09:12:34.467Z,100377.89
2022-07-31T09:15:22.741Z,100371.85
2022-07-31T09:17:54.959Z,100372.50
2022-07-31T09:20:29.545Z,100370.64
2022-07-31T09:23:09.369Z,100370.64
2022-07-31T09:25:55.138Z,100363.85
2022-07-31T09:28:36.456Z,100368.50
2022-07-31T09:31:10.283Z,100364.73
2022-07-31T09:34:08.424Z,100366.20
2022-07-31T09:36:45.812Z,100363.17
2022-07-31T09:39:55.556Z,100359.88
2022-07-31T09:43:04.263Z,100358.31
2022-07-31T09:45:47.971Z,100355.19
2022-07-31T09:48:51.143Z,100353.84
2022-07-31T09:51:23.491Z,100355.45
2022-07-31T09:53:57.595Z,100355.56
2022-07-31T09:56:50.317Z,100355.05
2022-07-31T09:59:23.995Z,100353.23
2022-07-31T10:01:56.484Z,100352.66
2022-07-31T10:04:28.888Z,100353.32
2022-07-31T10:07:01.625Z,100347.26
2022-07-31T10:09:36.001Z,100343.73
2022-07-31T10:12:16.585Z,100340.27
2022-07-31T10:14:51.868Z,100340.52
2022-07-31T10:17:33.693Z,100334.80
2022-07-31T10:20:23.951Z,100335.23
2022-07-31T10:23:19.476Z,100339.35
2022-07-31T10:25:57.750Z,100332.67
2022-07-31T10:28:30.796Z,100325.84
2022-07-31T10:31:02.962Z,100326.25
2022-07-31T10:33:44.543Z,100328.83
2022-07-31T10:36:39.444Z,100328.05
2022-07-31T10:39:37.042Z,100324.39
2022-07-31T10:42:32.720Z,100327.98
2022-07-31T10:45:09.623Z,100325.71
2022-07-31T10:48:03.039Z,100332.03
2022-07-31T10:51:07.276Z,100328.60
2022-07-31T10:54:11.427Z,100327.12
2022-07-31T10:57:08.112Z,100318.17
2022-07-31T10:59:46.723Z,100313.98
2022-07-31T11:02:39.075Z,100315.38
2022-07-31T11:06:00.956Z,100313.92
2022-07-31T11:08:49.822Z,100312.36
2022-07-31T11:11:41.555Z,100311.27
2022-07-31T11:14:38.220Z,100307.68
2022-07-31T11:18:21.302Z,100309.11
2022-07-31T11:20:31.124Z,100304.48
2022-07-31T11:23:05.110Z,100305.64
2022-07-31T11:25:38.454Z,100301.20
2022-07-31T11:28:21.513Z,100299.73
2022-07-31T11:30:55.453Z,100299.60
2022-07-31T11:33:42.654Z,100305.23
2022-07-31T11:36:17.772Z,100301.19
2022-07-31T11:38:51.044Z,100303.91
2022-07-31T11:41:27.701Z,100304.33
2022-07-31T11:44:03.360Z,100300.28
2022-07-31T11:46:37.960Z,100303.80
2022-07-31T11:49:09.889Z,100299.55
2022-07-31T11:51:41.613Z,100298.61
2022-07-31T11:54:22.827Z,100293.14
2022-07-31T11:56:56.785Z,100289.59
2022-07-31T11:59:45.951Z,100285.50
2022-07-31T12:02:22.616Z,100288.77
2022-07-31T12:04:54.974Z,100287.65
2022-07-31T12:07:26.666Z,100285.80
2022-07-31T12:10:00.640Z,100278.73
2022-07-31T12:12:35.091Z,100282.58
2022-07-31T12:15:19.438Z,100274.16
2022-07-31T12:18:00.948Z,100276.96
2022-07-31T12:20:36.263Z,100281.68
2022-07-31T12:23:40.572Z,100280.69
2022-07-31T12:26:01.602Z,100275.28
2022-07-31T12:28:33.355Z,100274.27
2022-07-31T12:31:05.053Z,100269.96
2022-07-31T12:33:45.681Z,100275.36
2022-07-31T12:36:19.949Z,100273.89
2022-07-31T12:39:00.978Z,100274.98
2022-07-31T12:41:42.175Z,100276.20
2022-07-31T12:44:15.327Z,100273.17
2022-07-31T12:46:53.685Z,100276.50
2022-07-31T12:49:25.399Z,100272.61
2022-07-31T12:51:57.050Z,100274.73
2022-07-31T12:54:30.879Z,100272.69
2022-07-31T12:57:04.976Z,100271.48
2022-07-31T12:59:37.658Z,100268.32
2022-07-31T13:02:08.176Z,100264.11
2022-07-31T13:04:41.132Z,100260.92
2022-07-31T13:07:14.847Z,100265.73
2022-07-31T13:10:14.954Z,100258.57
2022-07-31T13:12:38.350Z,100259.68
2022-07-31T13:15:12.146Z,100253.30
2022-07-31T13:17:43.957Z,100249.55
2022-07-31T13:20:22.689Z,100245.02
2022-07-31T13:22:54.428Z,100249.41
2022-07-31T13:25:26.093Z,100246.48
2022-07-31T13:27:57.901Z,100240.88
2022-07-31T13:30:30.023Z,100243.40
2022-07-31T13:33:01.776Z,100249.58
2022-07-31T13:35:35.319Z,100249.59
2022-07-31T13:38:08.065Z,100246.41
2022-07-31T13:40:57.580Z,100237.82
2022-07-31T13:43:29.434Z,100239.58
2022-07-31T13:46:01.705Z,100239.67
2022-07-31T13:48:35.184Z,100241.96
2022-07-31T13:51:07.076Z,100239.17
2022-07-31T13:53:39.093Z,100236.84
2022-07-31T13:56:10.972Z,100237.27
2022-07-31T13:58:42.586Z,100235.96
2022-07-31T14:01:14.586Z,100235.48
2022-07-31T14:03:46.372Z,100230.61
2022-07-31T14:06:20.540Z,100226.12
2022-07-31T14:08:54.616Z,100223.71
2022-07-31T14:11:26.457Z,100218.02
2022-07-31T14:13:58.284Z,100214.72
2022-07-31T14:16:30.472Z,100213.17
2022-07-31T14:19:02.832Z,100213.10
2022-07-31T14:21:33.122Z,100204.29
2022-07-31T14:24:05.150Z,100205.02
2022-07-31T14:26:36.879Z,100201.55
2022-07-31T14:29:08.748Z,100202.02
2022-07-31T14:31:40.710Z,100205.88
2022-07-31T14:34:12.440Z,100203.77
2022-07-31T14:36:44.328Z,100196.93
2022-07-31T14:39:16.841Z,100197.16
2022-07-31T14:41:47.075Z,100192.70
2022-07-31T14:44:21.456Z,100187.61
2022-07-31T14:47:00.558Z,100182.94
2022-07-31T14:50:06.626Z,100184.45
2022-07-31T14:52:26.574Z,100185.00
2022-07-31T14:55:00.693Z,100187.02
2022-07-31T14:57:32.519Z,100187.56
2022-07-31T15:00:09.874Z,100188.78
2022-07-31T15:02:44.382Z,100188.94
2022-07-31T15:06:39.650Z,100187.58
2022-07-31T15:08:09.528Z,100185.91
2022-07-31T15:10:41.997Z,100181.79
2022-07-31T15:13:12.288Z,100181.67
2022-07-31T15:15:45.373Z,100179.04
2022-07-31T15:18:17.317Z,100178.27
2022-07-31T15:20:49.132Z,100177.98
2022-07-31T15:23:20.872Z,100181.25
2022-07-31T15:25:52.876Z,100179.66
2022-07-31T15:28:24.715Z,100178.39
2022-07-31T15:31:00.908Z,100175.64
2022-07-31T15:33:33.001Z,100177.35
2022-07-31T15:36:04.704Z,100178.90
2022-07-31T15:38:39.994Z,100174.84
2022-07-31T15:41:12.073Z,100174.58
2022-07-31T15:43:50.888Z,100171.27
2022-07-31T15:46:22.753Z,100176.48
2022-07-31T15:48:54.556Z,100175.94
2022-07-31T15:51:26.405Z,100172.16
2022-07-31T15:53:58.183Z,100170.05
2022-07-31T15:56:30.136Z,100166.81
2022-07-31T15:59:01.974Z,100173.60
2022-07-31T16:01:33.891Z,100173.54
2022-07-31T16:04:16.661Z,100168.76
2022-07-31T16:06:50.608Z,100165.80
2022-07-31T16:09:24.066Z,100160.35
2022-07-31T16:12:05.495Z,100160.70
2022-07-31T16:14:37.736Z,100160.27
2022-07-31T16:17:11.821Z,100162.29
2022-07-31T16:19:44.342Z,100166.69
2022-07-31T16:22:16.354Z,100165.19
2022-07-31T16:24:50.742Z,100165.55
2022-07-31T16:27:22.723Z,100171.24
2022-07-31T16:29:59.431Z,100169.86
2022-07-31T16:32:34.161Z,100169.73
2022-07-31T16:35:07.176Z,100169.13
2022-07-31T16:37:51.679Z,100171.63
2022-07-31T16:40:30.417Z,100168.14
2022-07-31T16:43:47.713Z,100159.77
2022-07-31T16:45:59.375Z,100161.52
2022-07-31T16:48:31.941Z,100161.77
2022-07-31T16:51:04.332Z,100166.64
2022-07-31T16:54:13.349Z,100165.17
2022-07-31T16:56:28.643Z,100166.23
2022-07-31T16:59:03.798Z,100163.89
2022-07-31T17:01:56.847Z,100160.68
2022-07-31T17:04:29.230Z,100164.33
2022-07-31T17:07:00.959Z,100159.41
2022-07-31T17:09:33.520Z,100160.52
2022-07-31T17:12:06.197Z,100162.02
2022-07-31T17:14:39.982Z,100163.73
2022-07-31T17:17:13.607Z,100163.70
2022-07-31T17:19:46.987Z,100163.83
2022-07-31T17:22:19.391Z,100164.88
2022-07-31T17:24:51.756Z,100161.27
2022-07-31T17:27:24.364Z,100161.00
2022-07-31T17:29:56.080Z,100160.05
2022-07-31T17:32:27.987Z,100158.98
2022-07-31T17:34:59.704Z,100163.98
2022-07-31T17:37:31.873Z,100165.11
2022-07-31T17:40:12.975Z,100170.30
2022-07-31T17:42:56.896Z,100169.34
2022-07-31T17:45:28.031Z,100169.65
2022-07-31T17:48:20.316Z,100168.94
2022-07-31T17:50:54.132Z,100166.58
2022-07-31T17:53:31.141Z,100168.74
2022-07-31T17:56:19.143Z,100167.88
2022-07-31T17:58:50.836Z,100168.05
2022-07-31T18:01:28.513Z,100170.48
2022-07-31T18:04:01.693Z,100172.89
2022-07-31T18:06:32.428Z,100178.77
2022-07-31T18:09:04.402Z,100184.77
2022-07-31T18:11:36.284Z,100184.87
2022-07-31T18:14:08.032Z,100186.74
2022-07-31T18:16:40.501Z,100181.52
2022-07-31T18:19:12.250Z,100184.29
2022-07-31T18:21:44.672Z,100184.65
2022-07-31T18:24:14.848Z,100182.38
2022-07-31T18:26:46.961Z,100186.25
2022-07-31T18:29:19.475Z,100186.27
2022-07-31T18:31:51.076Z,100190.48
2022-07-31T18:34:22.960Z,100190.40
2022-07-31T18:36:55.661Z,100192.09
2022-07-31T18:39:27.909Z,100191.81
2022-07-31T18:42:00.616Z,100195.83
2022-07-31T18:44:34.638Z,100197.84
2022-07-31T18:47:07.147Z,100202.90
2022-07-31T18:50:59.639Z,100202.56
2022-07-31T18:52:31.343Z,100202.27
2022-07-31T18:55:03.048Z,100203.66
2022-07-31T18:57:34.731Z,100202.45
2022-07-31T19:00:10.776Z,100206.86
2022-07-31T19:02:43.073Z,100212.54
2022-07-31T19:05:21.870Z,100214.11
2022-07-31T19:07:53.665Z,100217.89
2022-07-31T19:10:30.940Z,100222.11
2022-07-31T19:13:03.797Z,100223.41
2022-07-31T19:15:37.658Z,100225.41
2022-07-31T19:18:11.104Z,100232.83
2022-07-31T19:21:00.090Z,100234.06
2022-07-31T19:23:39.174Z,100235.21
2022-07-31T19:26:11.541Z,100233.42
2022-07-31T19:28:44.628Z,100239.08
2022-07-31T19:31:16.938Z,100247.04
2022-07-31T19:33:49.599Z,100245.53
2022-07-31T19:36:21.879Z,100253.63
2022-07-31T19:38:53.485Z,100249.58
2022-07-31T19:41:25.397Z,100249.96
2022-07-31T19:43:57.359Z,100248.15
2022-07-31T19:46:29.322Z,100250.77
2022-07-31T19:49:02.889Z,100251.02
2022-07-31T19:51:34.724Z,100252.27
2022-07-31T19:54:06.830Z,100254.27
2022-07-31T19:56:42.337Z,100253.04
2022-07-31T19:59:14.910Z,100256.30
2022-07-31T20:01:45.573Z,100259.18
2022-07-31T20:04:17.952Z,100256.42
2022-07-31T20:06:51.947Z,100255.39
2022-07-31T20:09:25.316Z,100251.73
2022-07-31T20:11:57.031Z,100250.73
2022-07-31T20:14:28.938Z,100253.23
2022-07-31T20:17:01.307Z,100259.48
2022-07-31T20:19:32.522Z,100264.41
2022-07-31T20:22:04.385Z,100265.52
2022-07-31T20:24:37.057Z,100259.60
2022-07-31T20:27:09.184Z,100264.66
2022-07-31T20:29:41.139Z,100261.18
2022-07-31T20:32:13.510Z,100256.32
2022-07-31T20:34:45.470Z,100255.14
2022-07-31T20:37:18.077Z,100256.64
2022-07-31T20:39:50.711Z,100251.94
2022-07-31T20:42:22.711Z,100254.27
2022-07-31T20:44:54.933Z,100250.05
2022-07-31T20:47:26.600Z,100251.23
2022-07-31T20:49:58.964Z,100245.21
2022-07-31T20:52:30.797Z,100245.77
2022-07-31T20:55:04.227Z,100242.44
2022-07-31T20:57:36.784Z,100234.59
2022-07-31T21:00:08.762Z,100233.70
2022-07-31T21:02:40.497Z,100229.73
2022-07-31T21:05:12.552Z,100233.28
2022-07-31T21:07:58.768Z,100237.77
2022-07-31T21:10:30.572Z,100233.04
2022-07-31T21:13:02.130Z,100232.09
2022-07-31T21:15:42.990Z,100232.27
2022-07-31T21:18:18.330Z,100233.80
2022-07-31T21:20:53.813Z,100229.67
2022-07-31T21:23:26.699Z,100225.61
2022-07-31T21:25:59.583Z,100224.29
2022-07-31T21:28:31.678Z,100225.48
2022-07-31T21:31:04.394Z,100225.53
2022-07-31T21:33:37.375Z,100230.28
2022-07-31T21:36:11.108Z,100233.23
2022-07-31T21:38:43.443Z,100233.87
2022-07-31T21:41:16.459Z,100233.23
2022-07-31T21:43:59.509Z,100231.81
2022-07-31T21:46:35.382Z,100230.77
2022-07-31T21:49:09.763Z,100235.67
2022-07-31T21:51:43.045Z,100233.95
2022-07-31T21:54:16.421Z,100234.95
2022-07-31T21:56:48.145Z,100240.99
2022-07-31T21:59:19.675Z,100242.10
2022-07-31T22:01:57.705Z,100234.98
2022-07-31T22:04:34.514Z,100236.35
2022-07-31T22:07:24.361Z,100234.52
2022-07-31T22:09:56.268Z,100235.39
2022-07-31T22:12:27.993Z,100235.78
2022-07-31T22:14:59.566Z,100235.09
2022-07-31T22:17:31.236Z,100231.30
2022-07-31T22:20:04.356Z,100226.50
2022-07-31T22:22:37.542Z,100227.42
2022-07-31T22:25:12.773Z,100226.02
2022-07-31T22:27:55.358Z,100222.25
2022-07-31T22:30:29.345Z,100220.48
2022-07-31T22:33:02.621Z,100218.88
2022-07-31T22:35:35.789Z,100217.91
2022-07-31T22:38:07.587Z,100218.33
2022-07-31T22:40:40.468Z,100219.93
2022-07-31T22:44:14.025Z,100218.23
2022-07-31T22:46:10.250Z,100214.13
2022-07-31T22:48:42.033Z,100214.52
2022-07-31T22:51:14.887Z,100214.16
2022-07-31T22:53:49.117Z,100211.42
2022-07-31T22:56:21.640Z,100204.13
2022-07-31T22:58:53.241Z,100206.70
2022-07-31T23:01:24.981Z,100206.17
2022-07-31T23:03:56.777Z,100197.32
2022-07-31T23:06:31.639Z,100200.86
2022-07-31T23:09:04.750Z,100200.18
2022-07-31T23:11:36.339Z,100196.44
2022-07-31T23:14:08.249Z,100194.91
2022-07-31T23:16:39.905Z,100194.04
2022-07-31T23:19:11.632Z,100195.38
2022-07-31T23:21:43.873Z,100194.33
2022-07-31T23:24:16.317Z,100195.56
2022-07-31T23:26:48.005Z,100197.84
2022-07-31T23:29:19.593Z,100196.25
2022-07-31T23:31:51.233Z,100196.25
2022-07-31T23:34:22.923Z,100198.50
2022-07-31T23:36:54.530Z,100199.35
2022-07-31T23:39:26.273Z,100196.83
2022-07-31T23:42:15.672Z,100193.92
2022-07-31T23:44:47.734Z,100199.94
2022-07-31T23:47:19.498Z,100204.08
2022-07-31T23:49:51.610Z,100203.63
2022-07-31T23:52:23.670Z,100204.71
2022-07-31T23:54:56.760Z,100205.57
2022-07-31T23:57:28.444Z,100200.16
